createdAt,value
2019-02-08T00:00:20.959Z,95842.31
2019-02-08T00:01:25.022Z,95841.44
2019-02-08T00:02:28.469Z,95837.42
2019-02-08T00:03:31.967Z,95839.61
2019-02-08T00:04:35.750Z,95837.96
2019-02-08T00:05:39.260Z,95839.94
2019-02-08T00:06:42.826Z,95838.44
2019-02-08T00:07:46.326Z,95836.80
2019-02-08T00:08:49.890Z,95843.22
2019-02-08T00:09:53.380Z,95845.84
2019-02-08T00:10:56.829Z,95847.37
2019-02-08T00:12:00.444Z,95842.17
2019-02-08T00:13:04.034Z,95846.73
2019-02-08T00:14:07.627Z,95848.04
2019-02-08T00:15:13.645Z,95849.84
2019-02-08T00:16:17.253Z,95852.45
2019-02-08T00:17:21.029Z,95851.25
2019-02-08T00:18:24.527Z,95851.70
2019-02-08T00:19:28.023Z,95855.92
2019-02-08T00:20:31.602Z,95851.68
2019-02-08T00:21:35.177Z,95854.05
2019-02-08T00:22:38.768Z,95864.27
2019-02-08T00:23:42.273Z,95857.75
2019-02-08T00:24:45.698Z,95855.91
2019-02-08T00:25:49.199Z,95858.73
2019-02-08T00:26:52.719Z,95854.41
2019-02-08T00:27:56.237Z,95851.34
2019-02-08T00:28:59.746Z,95860.56
2019-02-08T00:30:03.905Z,95862.75
2019-02-08T00:31:07.668Z,95863.41
2019-02-08T00:32:11.181Z,95861.48
2019-02-08T00:33:14.680Z,95864.94
2019-02-08T00:34:18.112Z,95864.05
2019-02-08T00:35:21.774Z,95868.06
2019-02-08T00:36:25.203Z,95865.48
2019-02-08T00:37:28.669Z,95868.31
2019-02-08T00:38:32.123Z,95867.97
2019-02-08T00:39:35.618Z,95865.45
2019-02-08T00:40:39.114Z,95871.11
2019-02-08T00:41:42.619Z,95876.18
2019-02-08T00:42:46.217Z,95871.42
2019-02-08T00:43:49.945Z,95873.47
2019-02-08T00:44:53.370Z,95876.52
2019-02-08T00:45:56.860Z,95872.84
2019-02-08T00:47:00.359Z,95875.20
2019-02-08T00:48:04.377Z,95874.34
2019-02-08T00:49:07.870Z,95867.83
2019-02-08T00:50:14.343Z,95875.33
2019-02-08T00:51:17.772Z,95883.58
2019-02-08T00:52:21.233Z,95879.34
2019-02-08T00:53:24.709Z,95883.36
2019-02-08T00:54:28.140Z,95876.18
2019-02-08T00:55:31.580Z,95871.65
2019-02-08T00:56:35.360Z,95884.68
2019-02-08T00:57:38.916Z,95884.11
2019-02-08T00:58:42.466Z,95875.55
2019-02-08T00:59:45.956Z,95884.87
2019-02-08T01:00:49.523Z,95881.83
2019-02-08T01:01:52.947Z,95881.60
2019-02-08T01:02:56.478Z,95880.52
2019-02-08T01:03:59.945Z,95882.14
2019-02-08T01:05:04.109Z,95886.59
2019-02-08T01:06:07.694Z,95876.17
2019-02-08T01:07:11.187Z,95878.10
2019-02-08T01:08:14.706Z,95881.78
2019-02-08T01:09:18.302Z,95885.94
2019-02-08T01:10:27.163Z,95876.61
2019-02-08T01:11:30.726Z,95877.82
2019-02-08T01:12:34.229Z,95879.45
2019-02-08T01:13:37.672Z,95877.28
2019-02-08T01:14:41.100Z,95872.94
2019-02-08T01:15:44.660Z,95876.82
2019-02-08T01:16:48.110Z,95872.48
2019-02-08T01:17:51.676Z,95877.16
2019-02-08T01:18:55.139Z,95881.63
2019-02-08T01:19:58.626Z,95881.30
2019-02-08T01:21:02.127Z,95884.87
2019-02-08T01:22:05.722Z,95886.84
2019-02-08T01:23:09.352Z,95886.83
2019-02-08T01:24:12.791Z,95889.23
2019-02-08T01:25:18.469Z,95887.92
2019-02-08T01:26:21.951Z,95888.77
2019-02-08T01:27:25.445Z,95875.11
2019-02-08T01:28:28.956Z,95882.16
2019-02-08T01:29:32.671Z,95890.30
2019-02-08T01:30:36.138Z,95889.32
2019-02-08T01:31:39.565Z,95887.38
2019-02-08T01:32:43.054Z,95889.88
2019-02-08T01:33:46.564Z,95883.92
2019-02-08T01:34:50.016Z,95886.53
2019-02-08T01:35:53.522Z,95892.49
2019-02-08T01:36:56.952Z,95884.55
2019-02-08T01:38:01.224Z,95889.98
2019-02-08T01:39:06.885Z,95885.52
2019-02-08T01:40:16.099Z,95888.89
2019-02-08T01:41:19.588Z,95883.24
2019-02-08T01:42:23.090Z,95887.47
2019-02-08T01:43:26.587Z,95891.17
2019-02-08T01:44:30.172Z,95893.34
2019-02-08T01:45:33.881Z,95892.69
2019-02-08T01:46:37.374Z,95896.05
2019-02-08T01:47:40.866Z,95891.48
2019-02-08T01:48:44.431Z,95885.48
2019-02-08T01:49:47.936Z,95893.73
2019-02-08T01:50:51.384Z,95888.02
2019-02-08T01:51:54.883Z,95888.54
2019-02-08T01:52:58.522Z,95886.79
2019-02-08T01:54:01.953Z,95886.79
2019-02-08T01:55:07.231Z,95890.81
2019-02-08T01:56:10.646Z,95888.32
2019-02-08T01:57:14.066Z,95886.03
2019-02-08T01:58:17.563Z,95889.16
2019-02-08T01:59:20.989Z,95886.98
2019-02-08T02:00:27.266Z,95892.89
2019-02-08T02:01:30.832Z,95895.30
2019-02-08T02:02:34.258Z,95892.27
2019-02-08T02:03:37.749Z,95898.56
2019-02-08T02:04:41.170Z,95896.03
2019-02-08T02:05:44.761Z,95900.27
2019-02-08T02:06:48.256Z,95898.66
2019-02-08T02:07:51.956Z,95898.45
2019-02-08T02:08:55.387Z,95895.84
2019-02-08T02:09:58.820Z,95901.93
2019-02-08T02:11:02.354Z,95902.69
2019-02-08T02:12:05.869Z,95895.20
2019-02-08T02:13:10.322Z,95902.02
2019-02-08T02:14:13.825Z,95899.97
2019-02-08T02:15:17.584Z,95904.52
2019-02-08T02:16:21.091Z,95903.01
2019-02-08T02:17:24.626Z,95905.50
2019-02-08T02:18:28.099Z,95905.48
2019-02-08T02:19:31.590Z,95906.23
2019-02-08T02:20:37.535Z,95903.86
2019-02-08T02:21:41.053Z,95903.84
2019-02-08T02:22:44.550Z,95912.63
2019-02-08T02:23:47.961Z,95903.52
2019-02-08T02:24:51.394Z,95907.12
2019-02-08T02:25:54.972Z,95907.67
2019-02-08T02:26:58.406Z,95907.02
2019-02-08T02:28:01.894Z,95903.11
2019-02-08T02:29:05.387Z,95904.14
2019-02-08T02:30:17.707Z,95908.06
2019-02-08T02:31:21.169Z,95905.02
2019-02-08T02:32:24.685Z,95908.49
2019-02-08T02:33:28.107Z,95907.95
2019-02-08T02:34:31.621Z,95909.12
2019-02-08T02:35:35.186Z,95903.59
2019-02-08T02:36:38.703Z,95907.59
2019-02-08T02:37:42.230Z,95899.35
2019-02-08T02:38:45.645Z,95902.52
2019-02-08T02:39:49.131Z,95908.49
2019-02-08T02:40:52.721Z,95905.21
2019-02-08T02:41:56.148Z,95913.45
2019-02-08T02:42:59.731Z,95908.47
2019-02-08T02:44:03.225Z,95909.69
2019-02-08T02:45:15.718Z,95914.02
2019-02-08T02:46:19.279Z,95913.47
2019-02-08T02:47:22.725Z,95918.48
2019-02-08T02:48:26.172Z,95919.22
2019-02-08T02:49:29.656Z,95921.28
2019-02-08T02:50:33.221Z,95916.08
2019-02-08T02:51:36.743Z,95919.11
2019-02-08T02:52:40.253Z,95918.80
2019-02-08T02:53:43.775Z,95921.17
2019-02-08T02:54:47.261Z,95919.11
2019-02-08T02:55:50.689Z,95924.99
2019-02-08T02:56:54.108Z,95923.27
2019-02-08T02:57:57.915Z,95916.54
2019-02-08T02:59:01.490Z,95925.23
2019-02-08T03:00:10.552Z,95918.72
2019-02-08T03:01:13.978Z,95918.93
2019-02-08T03:02:17.401Z,95917.19
2019-02-08T03:03:20.854Z,95919.57
2019-02-08T03:04:24.413Z,95919.14
2019-02-08T03:05:28.378Z,95916.11
2019-02-08T03:06:31.809Z,95917.29
2019-02-08T03:07:35.322Z,95917.20
2019-02-08T03:08:39.740Z,95916.13
2019-02-08T03:09:43.320Z,95921.33
2019-02-08T03:10:46.897Z,95927.49
2019-02-08T03:11:50.317Z,95927.59
2019-02-08T03:12:53.878Z,95924.34
2019-02-08T03:13:57.405Z,95923.80
2019-02-08T03:15:00.905Z,95925.10
2019-02-08T03:16:04.578Z,95925.66
2019-02-08T03:17:08.075Z,95922.39
2019-02-08T03:18:11.834Z,95928.45
2019-02-08T03:19:15.352Z,95925.21
2019-02-08T03:20:20.321Z,95931.19
2019-02-08T03:21:23.803Z,95929.55
2019-02-08T03:22:27.388Z,95929.66
2019-02-08T03:23:30.840Z,95927.70
2019-02-08T03:24:34.271Z,95929.77
2019-02-08T03:25:37.831Z,95931.95
2019-02-08T03:26:41.389Z,95926.28
2019-02-08T03:27:44.896Z,95929.34
2019-02-08T03:28:48.406Z,95933.34
2019-02-08T03:29:51.834Z,95925.21
2019-02-08T03:30:56.645Z,95927.70
2019-02-08T03:32:00.073Z,95931.27
2019-02-08T03:33:03.632Z,95929.64
2019-02-08T03:34:07.238Z,95931.72
2019-02-08T03:35:13.881Z,95934.22
2019-02-08T03:36:17.292Z,95930.20
2019-02-08T03:37:20.711Z,95934.20
2019-02-08T03:38:24.236Z,95930.19
2019-02-08T03:39:27.730Z,95931.58
2019-02-08T03:40:31.896Z,95924.10
2019-02-08T03:41:35.459Z,95925.74
2019-02-08T03:42:39.125Z,95936.90
2019-02-08T03:43:42.584Z,95935.59
2019-02-08T03:44:45.997Z,95933.45
2019-02-08T03:45:51.145Z,95932.45
2019-02-08T03:46:54.638Z,95928.01
2019-02-08T03:47:58.087Z,95928.86
2019-02-08T03:49:01.600Z,95929.09
2019-02-08T03:50:11.572Z,95926.72
2019-02-08T03:51:15.062Z,95933.68
2019-02-08T03:52:18.494Z,95928.91
2019-02-08T03:53:22.091Z,95927.41
2019-02-08T03:54:25.593Z,95931.54
2019-02-08T03:55:29.159Z,95926.11
2019-02-08T03:56:32.731Z,95926.97
2019-02-08T03:57:36.293Z,95925.67
2019-02-08T03:58:39.735Z,95931.97
2019-02-08T03:59:43.240Z,95928.80
2019-02-08T04:00:48.551Z,95927.20
2019-02-08T04:01:52.043Z,95923.06
2019-02-08T04:02:55.620Z,95922.32
2019-02-08T04:04:15.473Z,95925.88
2019-02-08T04:05:19.043Z,95929.69
2019-02-08T04:06:22.472Z,95929.47
2019-02-08T04:07:25.959Z,95930.87
2019-02-08T04:08:29.449Z,95926.53
2019-02-08T04:09:32.966Z,95930.78
2019-02-08T04:10:36.483Z,95929.23
2019-02-08T04:11:39.979Z,95927.84
2019-02-08T04:12:43.479Z,95928.89
2019-02-08T04:13:46.965Z,95931.39
2019-02-08T04:14:50.556Z,95931.69
2019-02-08T04:15:54.091Z,95936.07
2019-02-08T04:16:57.549Z,95934.66
2019-02-08T04:18:01.011Z,95933.36
2019-02-08T04:19:04.761Z,95938.78
2019-02-08T04:20:11.149Z,95936.07
2019-02-08T04:21:14.600Z,95927.30
2019-02-08T04:22:18.032Z,95935.20
2019-02-08T04:23:21.460Z,95928.27
2019-02-08T04:24:30.062Z,95929.66
2019-02-08T04:25:30.123Z,95929.44
2019-02-08T04:26:35.181Z,95923.02
2019-02-08T04:27:38.636Z,95926.30
2019-02-08T04:28:42.118Z,95927.05
2019-02-08T04:29:45.553Z,95925.63
2019-02-08T04:30:48.999Z,95927.34
2019-02-08T04:31:52.436Z,95930.91
2019-02-08T04:32:56.279Z,95932.02
2019-02-08T04:33:59.785Z,95925.20
2019-02-08T04:35:03.348Z,95925.42
2019-02-08T04:36:06.853Z,95926.74
2019-02-08T04:37:10.346Z,95926.72
2019-02-08T04:38:13.785Z,95929.84
2019-02-08T04:39:17.350Z,95924.10
2019-02-08T04:40:25.082Z,95924.76
2019-02-08T04:41:28.528Z,95926.48
2019-02-08T04:42:31.953Z,95925.30
2019-02-08T04:43:35.456Z,95920.53
2019-02-08T04:44:38.884Z,95930.19
2019-02-08T04:45:42.382Z,95927.81
2019-02-08T04:46:45.924Z,95924.02
2019-02-08T04:47:49.691Z,95923.25
2019-02-08T04:48:53.112Z,95923.59
2019-02-08T04:49:56.560Z,95925.44
2019-02-08T04:50:59.969Z,95919.28
2019-02-08T04:52:03.579Z,95919.92
2019-02-08T04:53:07.053Z,95913.94
2019-02-08T04:54:10.623Z,95910.26
2019-02-08T04:55:14.516Z,95913.08
2019-02-08T04:56:18.008Z,95914.91
2019-02-08T04:57:21.527Z,95917.84
2019-02-08T04:58:24.956Z,95916.34
2019-02-08T04:59:28.384Z,95912.22
2019-02-08T05:00:34.068Z,95917.61
2019-02-08T05:01:37.483Z,95916.88
2019-02-08T05:02:40.944Z,95915.13
2019-02-08T05:03:44.422Z,95914.03
2019-02-08T05:04:48.019Z,95922.52
2019-02-08T05:05:51.507Z,95915.45
2019-02-08T05:06:55.010Z,95919.03
2019-02-08T05:07:58.517Z,95924.89
2019-02-08T05:09:01.942Z,95928.05
2019-02-08T05:10:11.097Z,95927.16
2019-02-08T05:11:14.524Z,95931.72
2019-02-08T05:12:17.952Z,95928.03
2019-02-08T05:13:21.477Z,95930.86
2019-02-08T05:14:24.901Z,95934.54
2019-02-08T05:15:28.780Z,95933.25
2019-02-08T05:16:32.273Z,95932.92
2019-02-08T05:17:35.774Z,95938.68
2019-02-08T05:18:39.222Z,95934.55
2019-02-08T05:19:42.715Z,95935.75
2019-02-08T05:20:46.236Z,95929.14
2019-02-08T05:21:49.659Z,95928.94
2019-02-08T05:22:53.427Z,95926.97
2019-02-08T05:23:56.877Z,95926.20
2019-02-08T05:25:00.471Z,95920.78
2019-02-08T05:26:03.943Z,95924.92
2019-02-08T05:27:07.525Z,95927.19
2019-02-08T05:28:10.967Z,95929.03
2019-02-08T05:29:14.483Z,95929.70
2019-02-08T05:30:26.746Z,95929.57
2019-02-08T05:31:30.201Z,95938.47
2019-02-08T05:32:33.610Z,95935.54
2019-02-08T05:33:37.125Z,95930.43
2019-02-08T05:34:40.629Z,95931.95
2019-02-08T05:35:44.129Z,95924.58
2019-02-08T05:36:47.561Z,95925.03
2019-02-08T05:37:51.129Z,95920.90
2019-02-08T05:38:54.558Z,95921.22
2019-02-08T05:39:58.073Z,95921.66
2019-02-08T05:41:01.569Z,95924.16
2019-02-08T05:42:05.130Z,95922.30
2019-02-08T05:43:08.616Z,95922.52
2019-02-08T05:44:12.137Z,95927.39
2019-02-08T05:45:18.614Z,95925.66
2019-02-08T05:46:22.043Z,95930.67
2019-02-08T05:47:25.495Z,95929.80
2019-02-08T05:48:29.000Z,95932.07
2019-02-08T05:49:32.544Z,95930.00
2019-02-08T05:50:36.036Z,95930.67
2019-02-08T05:51:39.459Z,95935.54
2019-02-08T05:52:43.093Z,95932.60
2019-02-08T05:53:46.522Z,95939.34
2019-02-08T05:54:54.336Z,95927.62
2019-02-08T05:55:55.260Z,95930.23
2019-02-08T05:56:58.744Z,95926.44
2019-02-08T05:58:02.245Z,95923.71
2019-02-08T05:59:05.805Z,95923.07
2019-02-08T06:00:28.497Z,95930.22
2019-02-08T06:01:31.921Z,95922.84
2019-02-08T06:02:35.345Z,95923.52
2019-02-08T06:03:38.930Z,95927.42
2019-02-08T06:04:43.578Z,95928.83
2019-02-08T06:05:47.210Z,95934.03
2019-02-08T06:06:52.994Z,95934.34
2019-02-08T06:07:55.816Z,95929.13
2019-02-08T06:08:59.704Z,95931.87
2019-02-08T06:10:03.219Z,95938.04
2019-02-08T06:11:06.741Z,95934.67
2019-02-08T06:12:10.297Z,95933.04
2019-02-08T06:13:13.892Z,95933.04
2019-02-08T06:14:17.325Z,95932.81
2019-02-08T06:15:22.717Z,95940.42
2019-02-08T06:16:26.293Z,95935.65
2019-02-08T06:17:29.783Z,95934.14
2019-02-08T06:18:33.473Z,95936.61
2019-02-08T06:19:37.023Z,95935.44
2019-02-08T06:20:40.728Z,95941.41
2019-02-08T06:21:44.179Z,95938.48
2019-02-08T06:22:47.747Z,95941.52
2019-02-08T06:23:51.179Z,95934.91
2019-02-08T06:25:02.891Z,95940.11
2019-02-08T06:25:59.836Z,95939.98
2019-02-08T06:27:03.248Z,95937.38
2019-02-08T06:28:07.107Z,95935.64
2019-02-08T06:29:10.682Z,95942.16
2019-02-08T06:30:17.149Z,95944.32
2019-02-08T06:31:20.607Z,95938.78
2019-02-08T06:32:24.095Z,95938.69
2019-02-08T06:33:27.535Z,95937.58
2019-02-08T06:34:31.027Z,95935.09
2019-02-08T06:35:34.696Z,95934.34
2019-02-08T06:36:38.144Z,95939.95
2019-02-08T06:37:44.408Z,95935.14
2019-02-08T06:38:47.028Z,95934.16
2019-02-08T06:39:50.575Z,95931.03
2019-02-08T06:40:54.075Z,95929.61
2019-02-08T06:41:57.619Z,95936.88
2019-02-08T06:43:01.197Z,95937.88
2019-02-08T06:44:04.876Z,95938.02
2019-02-08T06:45:11.368Z,95932.91
2019-02-08T06:46:15.036Z,95937.78
2019-02-08T06:47:18.568Z,95929.12
2019-02-08T06:48:22.159Z,95934.75
2019-02-08T06:49:25.582Z,95938.41
2019-02-08T06:50:29.312Z,95938.84
2019-02-08T06:51:32.743Z,95937.63
2019-02-08T06:52:36.359Z,95939.45
2019-02-08T06:53:39.945Z,95934.88
2019-02-08T06:54:43.483Z,95930.73
2019-02-08T06:55:46.941Z,95934.02
2019-02-08T06:57:01.151Z,95937.19
2019-02-08T06:58:07.964Z,95928.22
2019-02-08T06:59:13.094Z,95931.31
2019-02-08T07:00:23.327Z,95932.09
2019-02-08T07:01:40.607Z,95940.31
2019-02-08T07:02:51.657Z,95937.50
2019-02-08T07:03:59.828Z,95939.47
2019-02-08T07:05:05.165Z,95937.11
2019-02-08T07:06:16.261Z,95936.77
2019-02-08T07:07:24.128Z,95936.77
2019-02-08T07:08:29.216Z,95938.31
2019-02-08T07:09:37.386Z,95933.88
2019-02-08T07:10:42.441Z,95938.75
2019-02-08T07:12:05.651Z,95937.22
2019-02-08T07:13:10.834Z,95936.58
2019-02-08T07:14:28.011Z,95938.22
2019-02-08T07:15:33.219Z,95890.69
2019-02-08T07:16:38.354Z,95937.89
2019-02-08T07:17:43.418Z,95937.55
2019-02-08T07:18:48.508Z,95931.37
2019-02-08T07:19:59.337Z,95936.25
2019-02-08T07:21:07.533Z,95943.84
2019-02-08T07:22:12.648Z,95935.58
2019-02-08T07:23:17.801Z,95941.02
2019-02-08T07:24:28.864Z,95937.74
2019-02-08T07:25:39.897Z,95940.58
2019-02-08T07:26:45.110Z,95938.84
2019-02-08T07:27:50.301Z,95933.22
2019-02-08T07:28:55.364Z,95940.38
2019-02-08T07:30:03.404Z,95935.95
2019-02-08T07:31:08.603Z,95937.98
2019-02-08T07:32:28.625Z,95943.19
2019-02-08T07:33:36.146Z,95937.78
2019-02-08T07:34:44.369Z,95938.22
2019-02-08T07:35:49.880Z,95945.35
2019-02-08T07:36:55.188Z,95941.02
2019-02-08T07:38:01.588Z,95937.35
2019-02-08T07:39:12.374Z,95939.52
2019-02-08T07:40:26.165Z,95942.25
2019-02-08T07:41:38.053Z,95937.58
2019-02-08T07:42:59.358Z,95939.28
2019-02-08T07:44:07.848Z,95942.35
2019-02-08T07:45:13.804Z,95944.63
2019-02-08T07:46:19.618Z,95946.48
2019-02-08T07:47:40.312Z,95943.66
2019-02-08T07:48:58.082Z,95944.95
2019-02-08T07:50:03.283Z,95946.82
2019-02-08T07:51:14.008Z,95946.69
2019-02-08T07:52:19.217Z,95943.35
2019-02-08T07:53:40.653Z,95941.19
2019-02-08T07:54:57.824Z,95945.09
2019-02-08T07:56:06.016Z,95945.49
2019-02-08T07:57:17.204Z,95940.75
2019-02-08T07:58:37.537Z,95946.92
2019-02-08T07:59:51.638Z,95944.55
2019-02-08T08:01:00.972Z,95947.92
2019-02-08T08:02:12.122Z,95943.45
2019-02-08T08:03:29.506Z,95946.08
2019-02-08T08:04:37.937Z,95948.23
2019-02-08T08:05:44.032Z,95950.17
2019-02-08T08:06:52.158Z,95945.73
2019-02-08T08:07:57.463Z,95943.88
2019-02-08T08:09:19.149Z,95946.91
2019-02-08T08:10:27.415Z,95948.00
2019-02-08T08:11:32.639Z,95946.47
2019-02-08T08:12:37.848Z,95951.23
2019-02-08T08:13:45.448Z,95952.44
2019-02-08T08:15:05.573Z,95952.33
2019-02-08T08:16:23.240Z,95948.84
2019-02-08T08:17:37.196Z,95952.97
2019-02-08T08:18:59.060Z,95954.04
2019-02-08T08:20:21.228Z,95952.95
2019-02-08T08:21:29.183Z,95950.44
2019-02-08T08:22:43.416Z,95947.72
2019-02-08T08:23:58.877Z,95946.22
2019-02-08T08:25:04.580Z,95940.55
2019-02-08T08:26:27.795Z,95941.75
2019-02-08T08:27:33.530Z,95939.88
2019-02-08T08:28:38.725Z,95935.55
2019-02-08T08:29:44.162Z,95944.35
2019-02-08T08:30:52.148Z,95945.31
2019-02-08T08:32:01.640Z,95942.71
2019-02-08T08:33:15.480Z,95949.81
2019-02-08T08:34:39.632Z,95953.16
2019-02-08T08:36:01.006Z,95944.02
2019-02-08T08:37:31.683Z,95943.34
2019-02-08T08:38:44.126Z,95940.59
2019-02-08T08:40:05.437Z,95939.18
2019-02-08T08:41:11.910Z,95937.95
2019-02-08T08:42:33.356Z,95943.14
2019-02-08T08:43:39.881Z,95941.95
2019-02-08T08:45:02.501Z,95937.92
2019-02-08T08:46:32.769Z,95943.88
2019-02-08T08:47:48.012Z,95947.79
2019-02-08T08:49:15.334Z,95944.84
2019-02-08T08:50:49.910Z,95945.95
2019-02-08T08:51:56.387Z,95949.75
2019-02-08T08:53:34.139Z,95943.95
2019-02-08T08:54:40.636Z,95943.23
2019-02-08T08:55:49.780Z,95939.97
2019-02-08T08:57:07.869Z,95934.06
2019-02-08T08:58:23.249Z,95935.36
2019-02-08T08:59:44.571Z,95936.02
2019-02-08T09:00:53.507Z,95948.14
2019-02-08T09:02:11.619Z,95934.64
2019-02-08T09:03:35.715Z,95940.84
2019-02-08T09:05:03.007Z,95937.24
2019-02-08T09:06:42.114Z,95937.02
2019-02-08T09:08:09.318Z,95932.22
2019-02-08T09:09:27.582Z,95934.59
2019-02-08T09:10:48.530Z,95934.63
2019-02-08T09:12:20.080Z,95931.22
2019-02-08T09:13:41.230Z,95928.72
2019-02-08T09:14:59.505Z,95926.41
2019-02-08T09:16:14.641Z,95929.78
2019-02-08T09:17:39.010Z,95931.50
2019-02-08T09:19:12.036Z,95927.86
2019-02-08T09:20:43.682Z,95926.83
2019-02-08T09:22:13.635Z,95919.10
2019-02-08T09:23:20.114Z,95922.31
2019-02-08T09:24:35.082Z,95925.63
2019-02-08T09:26:00.709Z,95921.03
2019-02-08T09:27:18.971Z,95916.10
2019-02-08T09:28:57.887Z,95915.63
2019-02-08T09:30:22.059Z,95904.75
2019-02-08T09:31:36.857Z,95901.80
2019-02-08T09:33:01.205Z,95904.80
2019-02-08T09:34:25.545Z,95907.48
2019-02-08T09:35:51.131Z,95910.19
2019-02-08T09:37:12.055Z,95911.91
2019-02-08T09:38:33.182Z,95907.23
2019-02-08T09:39:48.037Z,95905.66
2019-02-08T09:41:12.330Z,95908.34
2019-02-08T09:42:51.492Z,95905.73
2019-02-08T09:44:30.438Z,95907.04
2019-02-08T09:45:45.739Z,95901.14
2019-02-08T09:47:00.944Z,95900.73
2019-02-08T09:48:19.320Z,95906.69
2019-02-08T09:49:42.188Z,95907.67
2019-02-08T09:51:07.356Z,95904.59
2019-02-08T09:52:19.832Z,95903.69
2019-02-08T09:53:48.516Z,95902.38
2019-02-08T09:55:29.426Z,95904.36
2019-02-08T09:56:56.832Z,95900.67
2019-02-08T09:58:23.881Z,95897.70
2019-02-08T09:59:54.201Z,95898.41
2019-02-08T10:01:23.000Z,95895.59
2019-02-08T10:02:50.078Z,95904.41
2019-02-08T10:04:11.482Z,95891.41
2019-02-08T10:05:32.851Z,95888.80
2019-02-08T10:06:51.253Z,95899.53
2019-02-08T10:08:25.107Z,95902.30
2019-02-08T10:09:34.241Z,95898.48
2019-02-08T10:11:13.287Z,95901.92
2019-02-08T10:12:37.695Z,95901.31
2019-02-08T10:13:55.868Z,95895.31
2019-02-08T10:15:18.651Z,95901.04
2019-02-08T10:16:47.180Z,95894.63
2019-02-08T10:18:18.790Z,95902.25
2019-02-08T10:19:49.131Z,95897.72
2019-02-08T10:21:27.958Z,95904.95
2019-02-08T10:22:46.154Z,95899.72
2019-02-08T10:23:58.248Z,95899.12
2019-02-08T10:25:16.583Z,95892.16
2019-02-08T10:26:23.076Z,95893.95
2019-02-08T10:27:43.944Z,95887.34
2019-02-08T10:29:11.318Z,95886.32
2019-02-08T10:30:34.392Z,95882.45
2019-02-08T10:32:12.261Z,95883.63
2019-02-08T10:33:51.394Z,95877.30
2019-02-08T10:35:09.697Z,95884.45
2019-02-08T10:36:47.152Z,95879.13
2019-02-08T10:38:14.193Z,95869.75
2019-02-08T10:39:29.589Z,95870.47
2019-02-08T10:41:01.353Z,95869.87
2019-02-08T10:42:13.609Z,95862.22
2019-02-08T10:43:44.020Z,95860.22
2019-02-08T10:44:56.157Z,95861.13
2019-02-08T10:46:14.606Z,95856.29
2019-02-08T10:47:35.913Z,95856.61
2019-02-08T10:48:58.436Z,95861.05
2019-02-08T10:50:21.072Z,95854.98
2019-02-08T10:51:30.050Z,95850.41
2019-02-08T10:53:02.059Z,95845.03
2019-02-08T10:54:27.904Z,95850.31
2019-02-08T10:56:15.028Z,95848.59
2019-02-08T10:57:24.254Z,95850.16
2019-02-08T10:58:55.882Z,95849.53
2019-02-08T11:00:36.629Z,95856.02
2019-02-08T11:01:57.822Z,95852.83
2019-02-08T11:03:12.807Z,95855.27
2019-02-08T11:04:41.554Z,95856.44
2019-02-08T11:06:04.348Z,95856.51
2019-02-08T11:07:28.775Z,95856.58
2019-02-08T11:09:09.584Z,95851.20
2019-02-08T11:10:28.137Z,95859.92
2019-02-08T11:11:49.747Z,95852.86
2019-02-08T11:13:13.962Z,95848.45
2019-02-08T11:14:36.623Z,95852.12
2019-02-08T11:15:52.011Z,95846.27
2019-02-08T11:17:16.244Z,95834.05
2019-02-08T11:18:39.982Z,95834.16
2019-02-08T11:19:42.261Z,95826.66
2019-02-08T11:20:45.687Z,95819.67
2019-02-08T11:21:50.059Z,95820.54
2019-02-08T11:22:53.511Z,95823.60
2019-02-08T11:23:56.996Z,95815.63
2019-02-08T11:25:00.554Z,95813.11
2019-02-08T11:26:04.959Z,95812.98
2019-02-08T11:27:08.518Z,95813.30
2019-02-08T11:28:11.982Z,95811.72
2019-02-08T11:29:15.488Z,95815.39
2019-02-08T11:30:20.283Z,95816.76
2019-02-08T11:31:23.796Z,95816.23
2019-02-08T11:32:42.550Z,95822.03
2019-02-08T11:33:32.599Z,95811.75
2019-02-08T11:34:36.119Z,95810.93
2019-02-08T11:35:39.556Z,95813.16
2019-02-08T11:36:43.118Z,95808.89
2019-02-08T11:37:46.783Z,95804.28
2019-02-08T11:38:50.232Z,95810.05
2019-02-08T11:39:53.705Z,95808.06
2019-02-08T11:40:57.133Z,95810.38
2019-02-08T11:42:00.580Z,95804.67
2019-02-08T11:43:04.140Z,95806.00
2019-02-08T11:44:07.723Z,95801.44
2019-02-08T11:45:14.078Z,95800.03
2019-02-08T11:46:17.508Z,95802.37
2019-02-08T11:47:20.934Z,95802.81
2019-02-08T11:48:24.498Z,95801.93
2019-02-08T11:49:27.957Z,95800.41
2019-02-08T11:50:31.457Z,95799.16
2019-02-08T11:51:34.907Z,95805.81
2019-02-08T11:52:38.408Z,95798.69
2019-02-08T11:53:41.839Z,95796.99
2019-02-08T11:54:45.285Z,95795.08
2019-02-08T11:55:48.753Z,95793.56
2019-02-08T11:56:52.330Z,95795.36
2019-02-08T11:57:55.818Z,95788.36
2019-02-08T11:58:59.392Z,95780.82
2019-02-08T12:00:04.053Z,95788.36
2019-02-08T12:01:07.614Z,95781.08
2019-02-08T12:02:11.109Z,95781.23
2019-02-08T12:03:14.528Z,95775.83
2019-02-08T12:04:18.297Z,95786.64
2019-02-08T12:05:21.818Z,95766.75
2019-02-08T12:06:25.385Z,95774.61
2019-02-08T12:07:28.817Z,95769.21
2019-02-08T12:08:32.309Z,95769.21
2019-02-08T12:09:35.813Z,95772.53
2019-02-08T12:10:39.399Z,95772.53
2019-02-08T12:11:44.305Z,95769.30
2019-02-08T12:12:47.792Z,95769.30
2019-02-08T12:13:51.295Z,95767.39
2019-02-08T12:14:54.795Z,95767.39
2019-02-08T12:15:58.475Z,95755.77
2019-02-08T12:17:01.925Z,95764.25
2019-02-08T12:18:05.495Z,95758.31
2019-02-08T12:19:08.993Z,95759.67
2019-02-08T12:20:12.667Z,95756.16
2019-02-08T12:21:16.273Z,95757.94
2019-02-08T12:22:19.791Z,95749.83
2019-02-08T12:23:23.287Z,95750.62
2019-02-08T12:24:26.796Z,95753.26
2019-02-08T12:25:30.298Z,95739.74
2019-02-08T12:26:37.875Z,95741.08
2019-02-08T12:27:39.153Z,95742.57
2019-02-08T12:28:42.663Z,95743.70
2019-02-08T12:29:46.299Z,95746.31
2019-02-08T12:30:50.048Z,95744.05
2019-02-08T12:31:53.583Z,95748.53
2019-02-08T12:32:57.156Z,95741.33
2019-02-08T12:34:00.595Z,95740.16
2019-02-08T12:35:05.346Z,95728.27
2019-02-08T12:36:08.837Z,95731.91
2019-02-08T12:37:12.294Z,95726.77
2019-02-08T12:38:15.813Z,95725.58
2019-02-08T12:39:19.327Z,95723.67
2019-02-08T12:40:22.762Z,95725.94
2019-02-08T12:41:26.263Z,95723.20
2019-02-08T12:42:29.704Z,95717.13
2019-02-08T12:43:33.231Z,95709.71
2019-02-08T12:44:36.786Z,95711.22
2019-02-08T12:45:40.449Z,95706.16
2019-02-08T12:46:43.949Z,95708.19
2019-02-08T12:47:47.472Z,95703.94
2019-02-08T12:48:51.050Z,95694.95
2019-02-08T12:49:54.478Z,95697.36
2019-02-08T12:50:58.048Z,95692.08
2019-02-08T12:52:01.612Z,95688.60
2019-02-08T12:53:05.418Z,95680.23
2019-02-08T12:54:08.924Z,95683.80
2019-02-08T12:55:15.090Z,95685.72
2019-02-08T12:56:18.653Z,95684.78
2019-02-08T12:57:22.075Z,95686.02
2019-02-08T12:58:26.672Z,95682.23
2019-02-08T12:59:30.451Z,95679.83
2019-02-08T13:00:34.106Z,95681.19
2019-02-08T13:01:38.049Z,95676.49
2019-02-08T13:02:41.522Z,95690.05
2019-02-08T13:03:45.110Z,95679.98
2019-02-08T13:04:48.888Z,95674.27
2019-02-08T13:05:52.396Z,95667.69
2019-02-08T13:06:55.903Z,95677.00
2019-02-08T13:07:59.481Z,95671.15
2019-02-08T13:09:04.569Z,95659.52
2019-02-08T13:10:11.281Z,95660.84
2019-02-08T13:11:14.780Z,95656.45
2019-02-08T13:12:18.204Z,95665.38
2019-02-08T13:13:21.651Z,95668.80
2019-02-08T13:14:25.276Z,95669.78
2019-02-08T13:15:28.833Z,95662.97
2019-02-08T13:16:32.332Z,95664.40
2019-02-08T13:17:35.756Z,95660.08